createdAt,value
2023-05-07T00:04:37.899Z,101155.66
2023-05-07T00:09:42.062Z,101143.44
2023-05-07T00:14:46.966Z,101105.53
2023-05-07T00:19:51.634Z,101110.19
2023-05-07T00:24:55.608Z,101160.34
2023-05-07T00:29:59.463Z,101159.44
2023-05-07T00:35:03.632Z,101172.00
2023-05-07T00:40:09.819Z,101157.09
2023-05-07T00:45:15.042Z,101123.59
2023-05-07T00:50:20.760Z,101163.53
2023-05-07T00:55:25.888Z,101166.69
2023-05-07T01:00:29.871Z,101168.91
2023-05-07T01:05:34.476Z,101165.06
2023-05-07T01:10:38.788Z,101171.31
2023-05-07T01:15:42.993Z,101166.25
2023-05-07T01:20:47.436Z,101089.22
2023-05-07T01:25:56.062Z,101161.00
2023-05-07T01:31:05.826Z,101140.44
2023-05-07T01:36:13.652Z,101118.28
2023-05-07T01:41:17.679Z,101153.97
2023-05-07T01:46:22.242Z,101157.66
2023-05-07T01:51:26.709Z,101154.59
2023-05-07T01:56:30.545Z,101151.13
2023-05-07T02:01:34.922Z,101149.41
2023-05-07T02:06:38.929Z,101153.38
2023-05-07T02:11:44.880Z,101137.50
2023-05-07T02:16:49.987Z,101128.63
2023-05-07T02:21:54.772Z,101148.56
2023-05-07T02:26:58.712Z,101133.06
2023-05-07T02:32:03.040Z,101137.31
2023-05-07T02:37:07.212Z,101133.97
2023-05-07T02:42:11.358Z,101090.44
2023-05-07T02:47:17.115Z,101134.03
2023-05-07T02:52:22.463Z,101126.66
2023-05-07T02:57:26.610Z,101119.91
2023-05-07T03:02:32.982Z,101120.94
2023-05-07T03:07:38.279Z,101108.91
2023-05-07T03:12:42.445Z,101108.59
2023-05-07T03:17:48.733Z,101117.13
2023-05-07T03:22:52.690Z,101108.84
2023-05-07T03:27:56.755Z,101090.78
2023-05-07T03:33:05.288Z,101098.91
2023-05-07T03:38:09.790Z,101092.69
2023-05-07T03:43:15.072Z,101088.03
2023-05-07T03:48:24.039Z,101081.31
2023-05-07T03:53:29.801Z,101080.53
2023-05-07T03:58:33.987Z,101084.63
2023-05-07T04:03:43.490Z,101063.13
2023-05-07T04:08:47.628Z,101077.09
2023-05-07T04:13:52.043Z,101071.16
2023-05-07T04:18:59.674Z,101062.28
2023-05-07T04:24:05.959Z,101069.41
2023-05-07T04:29:10.258Z,101062.16
2023-05-07T04:34:14.713Z,101053.69
2023-05-07T04:39:19.511Z,101049.78
2023-05-07T04:44:26.746Z,101038.16
2023-05-07T04:49:31.703Z,101039.72
2023-05-07T04:54:37.289Z,101039.06
2023-05-07T04:59:42.255Z,101022.19
2023-05-07T05:04:46.801Z,101034.00
2023-05-07T05:09:50.949Z,101028.09
2023-05-07T05:14:55.532Z,101017.91
2023-05-07T05:19:59.474Z,101020.13
2023-05-07T05:25:03.776Z,101006.38
2023-05-07T05:30:08.652Z,101008.84
2023-05-07T05:35:13.964Z,100995.09
2023-05-07T05:40:19.267Z,100985.44
2023-05-07T05:45:24.277Z,100985.94
2023-05-07T05:50:28.180Z,100985.13
2023-05-07T05:55:34.490Z,100964.94
2023-05-07T06:00:38.591Z,100959.00
2023-05-07T06:05:44.288Z,100947.84
2023-05-07T06:10:49.074Z,100949.72
2023-05-07T06:15:53.278Z,100942.16
2023-05-07T06:20:57.329Z,100931.03
2023-05-07T06:26:05.271Z,100932.66
2023-05-07T06:31:22.159Z,100897.41
2023-05-07T06:36:34.266Z,100933.50
2023-05-07T06:41:42.841Z,100920.53
2023-05-07T06:46:58.681Z,100916.50
2023-05-07T06:52:02.710Z,100912.34
2023-05-07T06:57:07.518Z,100865.31
2023-05-07T07:02:11.396Z,100906.91
2023-05-07T07:07:16.286Z,100891.38
2023-05-07T07:12:24.571Z,100849.28
2023-05-07T07:17:28.723Z,100896.31
2023-05-07T07:22:32.866Z,100861.25
2023-05-07T07:27:38.681Z,100877.66
2023-05-07T07:32:42.859Z,100881.13
2023-05-07T07:37:46.898Z,100873.69
2023-05-07T07:42:52.344Z,100865.50
2023-05-07T07:47:56.710Z,100854.72
2023-05-07T07:53:02.079Z,100848.50
2023-05-07T07:58:07.176Z,100850.88
2023-05-07T08:03:12.653Z,100826.84
2023-05-07T08:08:22.091Z,100844.19
2023-05-07T08:13:26.894Z,100829.50
2023-05-07T08:18:31.656Z,100825.38
2023-05-07T08:23:38.644Z,100816.84
2023-05-07T08:28:43.022Z,100816.13
2023-05-07T08:33:47.453Z,100818.81
2023-05-07T08:38:51.663Z,100790.50
2023-05-07T08:43:59.761Z,100803.53
2023-05-07T08:49:04.763Z,100772.44
2023-05-07T08:54:09.269Z,100739.50
2023-05-07T08:59:13.708Z,100779.19
2023-05-07T09:04:19.198Z,100775.38
2023-05-07T09:09:24.595Z,100708.81
2023-05-07T09:14:35.082Z,100773.84
2023-05-07T09:19:40.323Z,100757.31
2023-05-07T09:24:50.701Z,100757.69
2023-05-07T09:29:57.692Z,100750.06
2023-05-07T09:35:01.588Z,100745.16
2023-05-07T09:40:08.547Z,100739.00
2023-05-07T09:45:13.032Z,100735.16
2023-05-07T09:50:21.669Z,100723.31
2023-05-07T09:55:26.283Z,100729.81
2023-05-07T10:00:32.301Z,100723.69
2023-05-07T10:05:46.494Z,100716.41
2023-05-07T10:10:51.877Z,100704.50
2023-05-07T10:16:00.374Z,100681.44
2023-05-07T10:21:23.549Z,100693.38
2023-05-07T10:26:33.049Z,100693.22
2023-05-07T10:32:14.601Z,100689.28
2023-05-07T10:37:19.992Z,100680.63
2023-05-07T10:42:24.277Z,100671.59
2023-05-07T10:47:31.274Z,100667.69
2023-05-07T10:52:38.726Z,100672.63
2023-05-07T10:57:51.277Z,100667.00
2023-05-07T11:03:09.041Z,100659.94
2023-05-07T11:08:19.857Z,100607.53
2023-05-07T11:13:48.577Z,100654.28
2023-05-07T11:19:57.026Z,100645.00
2023-05-07T11:25:10.894Z,100645.31
2023-05-07T11:30:22.713Z,100636.00
2023-05-07T11:35:28.199Z,100632.19
2023-05-07T11:40:32.819Z,100630.91
2023-05-07T11:45:37.044Z,100629.41
2023-05-07T11:51:02.123Z,100625.22
2023-05-07T11:56:17.154Z,100624.13
2023-05-07T12:01:21.216Z,100628.22
2023-05-07T12:06:25.190Z,100629.06
2023-05-07T12:11:29.060Z,100622.25
2023-05-07T12:16:33.669Z,100607.16
2023-05-07T12:21:37.966Z,100615.16
2023-05-07T12:26:42.746Z,100622.91
2023-05-07T12:31:46.896Z,100616.59
2023-05-07T12:36:50.924Z,100612.97
2023-05-07T12:42:03.204Z,100610.72
2023-05-07T12:47:07.227Z,100562.00
2023-05-07T12:52:13.448Z,100603.75
2023-05-07T12:57:22.648Z,100615.63
2023-05-07T13:02:36.385Z,100615.22
2023-05-07T13:07:42.272Z,100608.41
2023-05-07T13:12:46.758Z,100607.50
2023-05-07T13:17:50.837Z,100611.25
2023-05-07T13:22:55.082Z,100612.31
2023-05-07T13:28:09.511Z,100596.41
2023-05-07T13:33:16.039Z,100611.59
2023-05-07T13:38:20.006Z,100620.13
2023-05-07T13:43:24.132Z,100624.94
2023-05-07T13:48:28.155Z,100627.19
2023-05-07T13:53:32.312Z,100626.50
2023-05-07T13:58:44.866Z,100631.56
2023-05-07T14:03:57.812Z,100651.25
2023-05-07T14:09:01.920Z,100638.72
2023-05-07T14:14:05.830Z,100641.78
2023-05-07T14:19:09.765Z,100646.25
2023-05-07T14:24:15.821Z,100633.78
2023-05-07T14:29:26.329Z,100651.63
2023-05-07T14:34:30.360Z,100596.44
2023-05-07T14:39:34.509Z,100651.34
2023-05-07T14:44:38.306Z,100650.75
2023-05-07T14:49:45.232Z,100665.63
2023-05-07T14:54:49.257Z,100673.72
2023-05-07T14:59:53.380Z,100662.81
2023-05-07T15:04:57.459Z,100683.81
2023-05-07T15:10:01.444Z,100670.03
2023-05-07T15:15:08.168Z,100674.69
2023-05-07T15:20:12.226Z,100669.00
2023-05-07T15:25:16.957Z,100665.19
2023-05-07T15:30:22.585Z,100683.41
2023-05-07T15:35:27.533Z,100661.25
2023-05-07T15:40:34.133Z,100672.97
2023-05-07T15:45:43.325Z,100679.75
2023-05-07T15:50:47.465Z,100665.78
2023-05-07T15:55:51.491Z,100669.44
2023-05-07T16:00:55.461Z,100667.84
2023-05-07T16:06:01.648Z,100662.63
2023-05-07T16:11:05.707Z,100666.00
2023-05-07T16:16:09.658Z,100663.97
2023-05-07T16:21:13.783Z,100610.22
2023-05-07T16:26:18.741Z,100657.75
2023-05-07T16:31:22.713Z,100612.41
2023-05-07T16:36:32.654Z,100652.78
2023-05-07T16:41:37.134Z,100663.03
2023-05-07T16:46:41.253Z,100650.28
2023-05-07T16:51:47.103Z,100657.59
2023-05-07T16:56:51.476Z,100650.00
2023-05-07T17:01:56.984Z,100655.47
2023-05-07T17:07:01.834Z,100647.16
2023-05-07T17:12:06.589Z,100661.69
2023-05-07T17:17:10.515Z,100602.41
2023-05-07T17:22:14.452Z,100657.94
2023-05-07T17:27:18.470Z,100608.19
2023-05-07T17:32:22.824Z,100659.38
2023-05-07T17:37:27.613Z,100665.03
2023-05-07T17:42:32.625Z,100661.91
2023-05-07T17:47:36.904Z,100610.63
2023-05-07T17:52:42.642Z,100662.41
2023-05-07T17:57:46.564Z,100617.59
2023-05-07T18:02:53.311Z,100669.75
2023-05-07T18:07:57.706Z,100626.00
2023-05-07T18:13:01.787Z,100665.94
2023-05-07T18:18:06.492Z,100663.69
2023-05-07T18:23:10.335Z,100668.69
2023-05-07T18:28:14.358Z,100671.94
2023-05-07T18:33:18.454Z,100661.56
2023-05-07T18:38:22.377Z,100661.59
2023-05-07T18:43:26.520Z,100655.00
2023-05-07T18:48:30.308Z,100649.00
2023-05-07T18:53:34.314Z,100644.72
2023-05-07T18:58:38.368Z,100652.25
2023-05-07T19:03:42.379Z,100646.06
2023-05-07T19:08:46.424Z,100627.13
2023-05-07T19:13:50.825Z,100641.53
2023-05-07T19:18:54.890Z,100635.69
2023-05-07T19:23:59.015Z,100627.81
2023-05-07T19:29:16.652Z,100626.16
2023-05-07T19:34:22.018Z,100619.59
2023-05-07T19:39:26.332Z,100610.88
2023-05-07T19:44:30.306Z,100603.47
2023-05-07T19:49:34.324Z,100561.59
2023-05-07T19:54:38.332Z,100560.03
2023-05-07T19:59:42.117Z,100606.44
2023-05-07T20:04:46.307Z,100595.56
2023-05-07T20:09:50.390Z,100610.13
2023-05-07T20:14:54.614Z,100588.56
2023-05-07T20:19:58.692Z,100542.66
2023-05-07T20:25:06.946Z,100602.31
2023-05-07T20:30:11.704Z,100578.34
2023-05-07T20:35:16.062Z,100575.84
2023-05-07T20:40:20.148Z,100579.25
2023-05-07T20:45:24.176Z,100575.53
2023-05-07T20:50:28.540Z,100542.31
2023-05-07T20:55:32.386Z,100588.09
2023-05-07T21:00:36.648Z,100578.56
2023-05-07T21:05:40.473Z,100585.78
2023-05-07T21:10:44.823Z,100574.00
2023-05-07T21:15:49.037Z,100586.00
2023-05-07T21:20:52.851Z,100581.94
2023-05-07T21:25:56.683Z,100593.00
2023-05-07T21:31:00.473Z,100585.28
2023-05-07T21:36:04.801Z,100567.44
2023-05-07T21:41:08.872Z,100567.50
2023-05-07T21:46:12.762Z,100583.06
2023-05-07T21:51:16.994Z,100574.13
2023-05-07T21:56:20.802Z,100562.09
2023-05-07T22:01:24.909Z,100568.25
2023-05-07T22:06:28.983Z,100562.69
2023-05-07T22:11:32.964Z,100562.88
2023-05-07T22:16:37.287Z,100558.69
2023-05-07T22:21:41.806Z,100544.59
2023-05-07T22:26:46.075Z,100561.06
2023-05-07T22:32:30.370Z,100558.63
2023-05-07T22:37:34.211Z,100559.78
2023-05-07T22:42:38.271Z,100543.97
2023-05-07T22:47:42.173Z,100545.91
2023-05-07T22:52:46.116Z,100566.94
2023-05-07T22:57:50.007Z,100558.81
2023-05-07T23:02:54.087Z,100558.09
2023-05-07T23:07:59.186Z,100543.56
2023-05-07T23:13:03.413Z,100557.56
2023-05-07T23:18:07.803Z,100540.75
2023-05-07T23:23:12.050Z,100561.56
2023-05-07T23:28:16.195Z,100557.38
2023-05-07T23:33:20.265Z,100558.00
2023-05-07T23:38:24.456Z,100554.88
2023-05-07T23:43:28.482Z,100543.91
2023-05-07T23:48:32.218Z,100551.94
2023-05-07T23:53:36.869Z,100544.81
2023-05-07T23:58:40.627Z,100546.41
